sensor_id;sensor_type;location;lat;lon;timestamp;P1;durP1;ratioP1;P2;durP2;ratioP2
4933;SDS011;2482;49.154;8.254;2023-11-19T00:01:49;3.50;;;2.40;;
4933;SDS011;2482;49.154;8.254;2023-11-19T00:04:17;5.73;;;2.70;;
4933;SDS011;2482;49.154;8.254;2023-11-19T00:06:44;2.70;;;2.50;;
4933;SDS011;2482;49.154;8.254;2023-11-19T00:09:11;3.17;;;2.40;;
4933;SDS011;2482;49.154;8.254;2023-11-19T00:11:38;2.80;;;2.60;;
4933;SDS011;2482;49.154;8.254;2023-11-19T00:14:05;3.43;;;2.77;;
4933;SDS011;2482;49.154;8.254;2023-11-19T00:16:34;4.93;;;2.43;;
4933;SDS011;2482;49.154;8.254;2023-11-19T00:19:01;2.80;;;2.00;;
4933;SDS011;2482;49.154;8.254;2023-11-19T00:21:30;4.93;;;2.30;;
4933;SDS011;2482;49.154;8.254;2023-11-19T00:23:59;2.80;;;2.00;;
4933;SDS011;2482;49.154;8.254;2023-11-19T00:26:26;2.77;;;2.40;;
4933;SDS011;2482;49.154;8.254;2023-11-19T00:28:53;2.80;;;2.50;;
4933;SDS011;2482;49.154;8.254;2023-11-19T00:31:22;3.37;;;2.70;;
4933;SDS011;2482;49.154;8.254;2023-11-19T00:33:49;2.67;;;2.47;;
4933;SDS011;2482;49.154;8.254;2023-11-19T00:36:16;5.43;;;2.70;;
4933;SDS011;2482;49.154;8.254;2023-11-19T00:38:43;2.43;;;2.23;;
4933;SDS011;2482;49.154;8.254;2023-11-19T00:41:10;4.13;;;2.50;;
4933;SDS011;2482;49.154;8.254;2023-11-19T00:43:38;3.10;;;2.90;;
4933;SDS011;2482;49.154;8.254;2023-11-19T00:46:06;2.80;;;2.20;;
4933;SDS011;2482;49.154;8.254;2023-11-19T00:48:34;2.40;;;2.20;;
4933;SDS011;2482;49.154;8.254;2023-11-19T00:51:01;2.47;;;2.33;;
4933;SDS011;2482;49.154;8.254;2023-11-19T00:53:28;2.60;;;2.40;;
4933;SDS011;2482;49.154;8.254;2023-11-19T00:55:56;2.50;;;2.10;;
4933;SDS011;2482;49.154;8.254;2023-11-19T00:58:23;1.90;;;1.73;;
4933;SDS011;2482;49.154;8.254;2023-11-19T01:00:50;2.87;;;2.67;;
4933;SDS011;2482;49.154;8.254;2023-11-19T01:03:17;2.57;;;2.37;;
4933;SDS011;2482;49.154;8.254;2023-11-19T01:05:44;4.30;;;2.50;;
4933;SDS011;2482;49.154;8.254;2023-11-19T01:08:13;2.30;;;2.10;;
4933;SDS011;2482;49.154;8.254;2023-11-19T01:10:41;2.47;;;2.27;;
4933;SDS011;2482;49.154;8.254;2023-11-19T01:13:08;2.60;;;2.40;;
4933;SDS011;2482;49.154;8.254;2023-11-19T01:15:35;2.63;;;2.43;;
4933;SDS011;2482;49.154;8.254;2023-11-19T01:18:02;3.20;;;2.50;;
4933;SDS011;2482;49.154;8.254;2023-11-19T01:20:31;2.13;;;2.00;;
4933;SDS011;2482;49.154;8.254;2023-11-19T01:23:00;3.30;;;2.53;;
4933;SDS011;2482;49.154;8.254;2023-11-19T01:25:27;2.90;;;2.40;;
4933;SDS011;2482;49.154;8.254;2023-11-19T01:27:55;2.33;;;2.13;;
4933;SDS011;2482;49.154;8.254;2023-11-19T01:30:24;2.67;;;2.43;;
4933;SDS011;2482;49.154;8.254;2023-11-19T01:32:52;2.33;;;2.13;;
4933;SDS011;2482;49.154;8.254;2023-11-19T01:35:19;3.70;;;2.23;;
4933;SDS011;2482;49.154;8.254;2023-11-19T01:37:48;2.53;;;2.40;;
4933;SDS011;2482;49.154;8.254;2023-11-19T01:40:15;2.20;;;2.10;;
4933;SDS011;2482;49.154;8.254;2023-11-19T01:42:46;2.57;;;2.33;;
4933;SDS011;2482;49.154;8.254;2023-11-19T01:45:21;1.97;;;1.87;;
4933;SDS011;2482;49.154;8.254;2023-11-19T01:47:55;2.17;;;2.07;;
4933;SDS011;2482;49.154;8.254;2023-11-19T01:50:25;2.43;;;1.97;;
4933;SDS011;2482;49.154;8.254;2023-11-19T01:52:54;2.43;;;2.23;;
4933;SDS011;2482;49.154;8.254;2023-11-19T01:55:24;2.70;;;2.50;;
4933;SDS011;2482;49.154;8.254;2023-11-19T01:57:54;2.37;;;2.17;;
4933;SDS011;2482;49.154;8.254;2023-11-19T02:00:26;3.40;;;2.30;;
4933;SDS011;2482;49.154;8.254;2023-11-19T02:02:53;2.70;;;2.50;;
4933;SDS011;2482;49.154;8.254;2023-11-19T02:05:21;3.10;;;2.80;;
4933;SDS011;2482;49.154;8.254;2023-11-19T02:07:49;2.57;;;2.37;;
4933;SDS011;2482;49.154;8.254;2023-11-19T02:10:17;2.07;;;1.97;;
4933;SDS011;2482;49.154;8.254;2023-11-19T02:12:45;1.90;;;1.80;;
4933;SDS011;2482;49.154;8.254;2023-11-19T02:15:13;2.13;;;1.93;;
4933;SDS011;2482;49.154;8.254;2023-11-19T02:17:40;2.50;;;2.30;;
4933;SDS011;2482;49.154;8.254;2023-11-19T02:20:07;2.37;;;2.20;;
4933;SDS011;2482;49.154;8.254;2023-11-19T02:22:35;2.50;;;2.30;;
4933;SDS011;2482;49.154;8.254;2023-11-19T02:25:07;2.43;;;2.23;;
4933;SDS011;2482;49.154;8.254;2023-11-19T02:30:14;2.90;;;2.70;;
4933;SDS011;2482;49.154;8.254;2023-11-19T02:32:42;2.70;;;2.50;;
4933;SDS011;2482;49.154;8.254;2023-11-19T02:35:09;2.73;;;2.53;;
4933;SDS011;2482;49.154;8.254;2023-11-19T02:37:38;2.47;;;2.27;;
4933;SDS011;2482;49.154;8.254;2023-11-19T02:40:05;3.10;;;2.80;;
4933;SDS011;2482;49.154;8.254;2023-11-19T02:42:35;2.63;;;2.43;;
4933;SDS011;2482;49.154;8.254;2023-11-19T02:45:02;2.47;;;2.27;;
4933;SDS011;2482;49.154;8.254;2023-11-19T02:47:35;2.70;;;2.50;;
4933;SDS011;2482;49.154;8.254;2023-11-19T02:50:02;2.73;;;2.53;;
4933;SDS011;2482;49.154;8.254;2023-11-19T02:52:30;2.77;;;2.57;;
4933;SDS011;2482;49.154;8.254;2023-11-19T02:55:01;4.20;;;2.53;;
4933;SDS011;2482;49.154;8.254;2023-11-19T02:57:30;2.80;;;2.60;;
4933;SDS011;2482;49.154;8.254;2023-11-19T02:59:58;3.70;;;3.07;;
4933;SDS011;2482;49.154;8.254;2023-11-19T03:02:25;2.80;;;2.60;;
4933;SDS011;2482;49.154;8.254;2023-11-19T03:05:00;2.53;;;2.33;;
4933;SDS011;2482;49.154;8.254;2023-11-19T03:07:27;2.90;;;2.60;;
4933;SDS011;2482;49.154;8.254;2023-11-19T03:09:54;2.70;;;2.50;;
4933;SDS011;2482;49.154;8.254;2023-11-19T03:12:21;3.00;;;2.80;;
4933;SDS011;2482;49.154;8.254;2023-11-19T03:14:48;2.73;;;2.53;;
4933;SDS011;2482;49.154;8.254;2023-11-19T03:17:17;2.90;;;2.70;;
4933;SDS011;2482;49.154;8.254;2023-11-19T03:19:45;2.63;;;2.43;;
4933;SDS011;2482;49.154;8.254;2023-11-19T03:22:12;2.70;;;2.50;;
4933;SDS011;2482;49.154;8.254;2023-11-19T03:24:39;2.97;;;2.77;;
4933;SDS011;2482;49.154;8.254;2023-11-19T03:27:06;2.30;;;2.10;;
4933;SDS011;2482;49.154;8.254;2023-11-19T03:29:33;3.33;;;2.60;;
4933;SDS011;2482;49.154;8.254;2023-11-19T03:32:00;3.03;;;2.60;;
4933;SDS011;2482;49.154;8.254;2023-11-19T03:34:27;4.17;;;2.33;;
4933;SDS011;2482;49.154;8.254;2023-11-19T03:36:54;2.67;;;2.47;;
4933;SDS011;2482;49.154;8.254;2023-11-19T03:39:22;2.63;;;2.43;;
4933;SDS011;2482;49.154;8.254;2023-11-19T03:41:51;3.20;;;2.17;;
4933;SDS011;2482;49.154;8.254;2023-11-19T03:44:18;2.57;;;2.37;;
4933;SDS011;2482;49.154;8.254;2023-11-19T03:46:45;2.20;;;2.10;;
4933;SDS011;2482;49.154;8.254;2023-11-19T03:49:13;2.57;;;2.37;;
4933;SDS011;2482;49.154;8.254;2023-11-19T03:51:41;2.33;;;2.23;;
4933;SDS011;2482;49.154;8.254;2023-11-19T03:54:07;2.67;;;2.47;;
4933;SDS011;2482;49.154;8.254;2023-11-19T03:56:34;3.67;;;2.20;;
4933;SDS011;2482;49.154;8.254;2023-11-19T03:59:01;3.13;;;2.30;;
4933;SDS011;2482;49.154;8.254;2023-11-19T04:01:28;3.47;;;2.40;;
4933;SDS011;2482;49.154;8.254;2023-11-19T04:03:55;4.50;;;2.50;;
4933;SDS011;2482;49.154;8.254;2023-11-19T04:06:23;3.60;;;3.03;;
4933;SDS011;2482;49.154;8.254;2023-11-19T04:08:50;2.63;;;2.43;;
4933;SDS011;2482;49.154;8.254;2023-11-19T04:11:17;2.53;;;2.40;;
4933;SDS011;2482;49.154;8.254;2023-11-19T04:13:44;4.53;;;2.90;;
4933;SDS011;2482;49.154;8.254;2023-11-19T04:16:11;3.00;;;2.63;;
4933;SDS011;2482;49.154;8.254;2023-11-19T04:18:38;3.00;;;2.70;;
4933;SDS011;2482;49.154;8.254;2023-11-19T04:21:06;3.90;;;2.70;;
4933;SDS011;2482;49.154;8.254;2023-11-19T04:23:34;6.57;;;3.13;;
4933;SDS011;2482;49.154;8.254;2023-11-19T04:26:04;3.90;;;3.07;;
4933;SDS011;2482;49.154;8.254;2023-11-19T04:28:35;5.73;;;3.27;;
4933;SDS011;2482;49.154;8.254;2023-11-19T04:31:02;3.57;;;2.70;;
4933;SDS011;2482;49.154;8.254;2023-11-19T04:33:30;5.73;;;2.90;;
4933;SDS011;2482;49.154;8.254;2023-11-19T04:35:57;3.20;;;2.90;;
4933;SDS011;2482;49.154;8.254;2023-11-19T04:38:24;3.33;;;2.50;;
4933;SDS011;2482;49.154;8.254;2023-11-19T04:40:53;2.93;;;2.60;;
4933;SDS011;2482;49.154;8.254;2023-11-19T04:43:20;4.80;;;2.50;;
4933;SDS011;2482;49.154;8.254;2023-11-19T04:45:47;2.70;;;2.50;;
4933;SDS011;2482;49.154;8.254;2023-11-19T04:48:14;2.63;;;2.43;;
4933;SDS011;2482;49.154;8.254;2023-11-19T04:50:41;6.87;;;2.70;;
4933;SDS011;2482;49.154;8.254;2023-11-19T04:53:08;7.93;;;2.60;;
4933;SDS011;2482;49.154;8.254;2023-11-19T04:55:36;4.43;;;2.73;;
4933;SDS011;2482;49.154;8.254;2023-11-19T04:58:03;4.40;;;2.20;;
4933;SDS011;2482;49.154;8.254;2023-11-19T05:00:30;4.50;;;2.40;;
4933;SDS011;2482;49.154;8.254;2023-11-19T05:02:57;3.43;;;1.87;;
4933;SDS011;2482;49.154;8.254;2023-11-19T05:05:24;6.20;;;1.90;;
4933;SDS011;2482;49.154;8.254;2023-11-19T05:07:52;5.00;;;2.00;;
4933;SDS011;2482;49.154;8.254;2023-11-19T05:10:19;2.00;;;1.80;;
4933;SDS011;2482;49.154;8.254;2023-11-19T05:12:46;2.37;;;2.17;;
4933;SDS011;2482;49.154;8.254;2023-11-19T05:15:13;3.40;;;1.77;;
4933;SDS011;2482;49.154;8.254;2023-11-19T05:17:40;2.93;;;2.17;;
4933;SDS011;2482;49.154;8.254;2023-11-19T05:20:08;3.10;;;2.10;;
4933;SDS011;2482;49.154;8.254;2023-11-19T05:22:40;7.53;;;1.70;;
4933;SDS011;2482;49.154;8.254;2023-11-19T05:25:08;2.60;;;2.40;;
4933;SDS011;2482;49.154;8.254;2023-11-19T05:27:38;2.83;;;2.00;;
4933;SDS011;2482;49.154;8.254;2023-11-19T05:30:05;2.07;;;1.60;;
4933;SDS011;2482;49.154;8.254;2023-11-19T05:32:33;2.10;;;1.60;;
4933;SDS011;2482;49.154;8.254;2023-11-19T05:35:00;1.83;;;1.37;;
4933;SDS011;2482;49.154;8.254;2023-11-19T05:37:28;3.10;;;1.60;;
4933;SDS011;2482;49.154;8.254;2023-11-19T05:39:55;4.00;;;1.50;;
4933;SDS011;2482;49.154;8.254;2023-11-19T05:42:22;4.83;;;2.00;;
4933;SDS011;2482;49.154;8.254;2023-11-19T05:44:50;1.60;;;1.50;;
4933;SDS011;2482;49.154;8.254;2023-11-19T05:47:18;1.43;;;1.10;;
4933;SDS011;2482;49.154;8.254;2023-11-19T05:49:45;1.60;;;1.50;;
4933;SDS011;2482;49.154;8.254;2023-11-19T05:52:12;1.30;;;1.20;;
4933;SDS011;2482;49.154;8.254;2023-11-19T05:54:39;4.03;;;1.50;;
4933;SDS011;2482;49.154;8.254;2023-11-19T05:57:06;2.13;;;1.10;;
4933;SDS011;2482;49.154;8.254;2023-11-19T05:59:36;1.53;;;1.30;;
4933;SDS011;2482;49.154;8.254;2023-11-19T06:02:03;3.07;;;1.37;;
4933;SDS011;2482;49.154;8.254;2023-11-19T06:04:30;2.77;;;1.47;;
4933;SDS011;2482;49.154;8.254;2023-11-19T06:06:58;1.27;;;1.10;;
4933;SDS011;2482;49.154;8.254;2023-11-19T06:09:25;2.57;;;1.50;;
4933;SDS011;2482;49.154;8.254;2023-11-19T06:11:52;2.23;;;1.63;;
4933;SDS011;2482;49.154;8.254;2023-11-19T06:14:20;3.07;;;1.80;;
4933;SDS011;2482;49.154;8.254;2023-11-19T06:16:47;1.63;;;1.30;;
4933;SDS011;2482;49.154;8.254;2023-11-19T06:19:14;1.20;;;1.10;;
4933;SDS011;2482;49.154;8.254;2023-11-19T06:21:41;1.43;;;1.20;;
4933;SDS011;2482;49.154;8.254;2023-11-19T06:24:08;1.70;;;1.10;;
4933;SDS011;2482;49.154;8.254;2023-11-19T06:26:35;1.00;;;0.90;;
4933;SDS011;2482;49.154;8.254;2023-11-19T06:29:02;3.73;;;1.23;;
4933;SDS011;2482;49.154;8.254;2023-11-19T06:31:29;1.17;;;0.90;;
4933;SDS011;2482;49.154;8.254;2023-11-19T06:33:56;1.10;;;1.10;;
4933;SDS011;2482;49.154;8.254;2023-11-19T06:36:23;3.30;;;2.20;;
4933;SDS011;2482;49.154;8.254;2023-11-19T06:38:50;4.50;;;3.57;;
4933;SDS011;2482;49.154;8.254;2023-11-19T06:41:19;46.07;;;23.20;;
4933;SDS011;2482;49.154;8.254;2023-11-19T06:43:46;72.30;;;32.93;;
4933;SDS011;2482;49.154;8.254;2023-11-19T06:46:16;27.20;;;14.40;;
4933;SDS011;2482;49.154;8.254;2023-11-19T06:48:44;27.27;;;16.23;;
4933;SDS011;2482;49.154;8.254;2023-11-19T06:51:11;20.63;;;13.60;;
4933;SDS011;2482;49.154;8.254;2023-11-19T06:53:39;18.73;;;11.40;;
4933;SDS011;2482;49.154;8.254;2023-11-19T06:56:17;15.50;;;11.53;;
4933;SDS011;2482;49.154;8.254;2023-11-19T06:58:51;4.53;;;2.43;;
4933;SDS011;2482;49.154;8.254;2023-11-19T07:01:19;3.20;;;3.00;;
4933;SDS011;2482;49.154;8.254;2023-11-19T07:03:46;2.20;;;1.83;;
4933;SDS011;2482;49.154;8.254;2023-11-19T07:06:15;2.90;;;1.40;;
4933;SDS011;2482;49.154;8.254;2023-11-19T07:08:42;1.50;;;1.40;;
4933;SDS011;2482;49.154;8.254;2023-11-19T07:11:13;3.03;;;1.70;;
4933;SDS011;2482;49.154;8.254;2023-11-19T07:13:43;3.97;;;1.40;;
4933;SDS011;2482;49.154;8.254;2023-11-19T07:16:13;2.20;;;1.80;;
4933;SDS011;2482;49.154;8.254;2023-11-19T07:18:41;1.30;;;1.20;;
4933;SDS011;2482;49.154;8.254;2023-11-19T07:21:10;2.70;;;1.90;;
4933;SDS011;2482;49.154;8.254;2023-11-19T07:23:37;1.90;;;1.40;;
4933;SDS011;2482;49.154;8.254;2023-11-19T07:26:05;3.67;;;2.00;;
4933;SDS011;2482;49.154;8.254;2023-11-19T07:28:34;2.27;;;1.50;;
4933;SDS011;2482;49.154;8.254;2023-11-19T07:31:01;2.80;;;2.57;;
4933;SDS011;2482;49.154;8.254;2023-11-19T07:33:28;2.10;;;1.93;;
4933;SDS011;2482;49.154;8.254;2023-11-19T07:35:56;2.20;;;1.50;;
4933;SDS011;2482;49.154;8.254;2023-11-19T07:38:23;1.60;;;1.50;;
4933;SDS011;2482;49.154;8.254;2023-11-19T07:40:50;2.40;;;1.70;;
4933;SDS011;2482;49.154;8.254;2023-11-19T07:43:19;1.73;;;1.53;;
4933;SDS011;2482;49.154;8.254;2023-11-19T07:45:47;3.47;;;1.83;;
4933;SDS011;2482;49.154;8.254;2023-11-19T07:48:14;2.50;;;1.60;;
4933;SDS011;2482;49.154;8.254;2023-11-19T07:50:43;2.30;;;1.77;;
4933;SDS011;2482;49.154;8.254;2023-11-19T07:53:10;3.70;;;2.00;;
4933;SDS011;2482;49.154;8.254;2023-11-19T07:55:38;2.20;;;1.83;;
4933;SDS011;2482;49.154;8.254;2023-11-19T07:58:08;1.63;;;1.40;;
4933;SDS011;2482;49.154;8.254;2023-11-19T08:00:35;2.17;;;1.63;;
4933;SDS011;2482;49.154;8.254;2023-11-19T08:03:03;2.80;;;1.63;;
4933;SDS011;2482;49.154;8.254;2023-11-19T08:05:31;1.73;;;1.50;;
4933;SDS011;2482;49.154;8.254;2023-11-19T08:07:58;2.80;;;1.47;;
4933;SDS011;2482;49.154;8.254;2023-11-19T08:10:26;1.50;;;1.40;;
4933;SDS011;2482;49.154;8.254;2023-11-19T08:12:53;2.37;;;1.20;;
4933;SDS011;2482;49.154;8.254;2023-11-19T08:15:20;1.77;;;1.07;;
4933;SDS011;2482;49.154;8.254;2023-11-19T08:17:49;2.40;;;1.30;;
4933;SDS011;2482;49.154;8.254;2023-11-19T08:20:17;2.73;;;2.07;;
4933;SDS011;2482;49.154;8.254;2023-11-19T08:22:44;2.03;;;1.23;;
4933;SDS011;2482;49.154;8.254;2023-11-19T08:25:11;2.93;;;0.90;;
4933;SDS011;2482;49.154;8.254;2023-11-19T08:27:39;2.00;;;1.20;;
4933;SDS011;2482;49.154;8.254;2023-11-19T08:30:06;3.00;;;1.13;;
4933;SDS011;2482;49.154;8.254;2023-11-19T08:32:34;1.40;;;1.07;;
4933;SDS011;2482;49.154;8.254;2023-11-19T08:35:02;2.40;;;1.00;;
4933;SDS011;2482;49.154;8.254;2023-11-19T08:37:29;2.30;;;1.27;;
4933;SDS011;2482;49.154;8.254;2023-11-19T08:39:56;1.27;;;1.10;;
4933;SDS011;2482;49.154;8.254;2023-11-19T08:42:23;2.77;;;1.20;;
4933;SDS011;2482;49.154;8.254;2023-11-19T08:44:51;2.47;;;1.23;;
4933;SDS011;2482;49.154;8.254;2023-11-19T08:47:20;1.97;;;1.33;;
4933;SDS011;2482;49.154;8.254;2023-11-19T08:49:52;5.10;;;1.77;;
4933;SDS011;2482;49.154;8.254;2023-11-19T08:52:22;4.83;;;1.70;;
4933;SDS011;2482;49.154;8.254;2023-11-19T08:54:49;4.57;;;1.67;;
4933;SDS011;2482;49.154;8.254;2023-11-19T08:57:16;2.33;;;1.40;;
4933;SDS011;2482;49.154;8.254;2023-11-19T08:59:44;4.70;;;2.13;;
4933;SDS011;2482;49.154;8.254;2023-11-19T09:02:12;2.23;;;2.03;;
4933;SDS011;2482;49.154;8.254;2023-11-19T09:04:39;1.97;;;1.47;;
4933;SDS011;2482;49.154;8.254;2023-11-19T09:07:08;2.07;;;1.30;;
4933;SDS011;2482;49.154;8.254;2023-11-19T09:09:37;2.80;;;1.90;;
4933;SDS011;2482;49.154;8.254;2023-11-19T09:12:04;5.00;;;3.60;;
4933;SDS011;2482;49.154;8.254;2023-11-19T09:14:32;6.93;;;2.13;;
4933;SDS011;2482;49.154;8.254;2023-11-19T09:16:59;4.23;;;1.90;;
4933;SDS011;2482;49.154;8.254;2023-11-19T09:19:26;2.30;;;1.60;;
4933;SDS011;2482;49.154;8.254;2023-11-19T09:21:53;1.20;;;1.10;;
4933;SDS011;2482;49.154;8.254;2023-11-19T09:24:20;1.00;;;1.00;;
4933;SDS011;2482;49.154;8.254;2023-11-19T09:26:48;1.20;;;1.10;;
4933;SDS011;2482;49.154;8.254;2023-11-19T09:29:16;1.17;;;0.93;;
4933;SDS011;2482;49.154;8.254;2023-11-19T09:31:43;0.93;;;0.80;;
4933;SDS011;2482;49.154;8.254;2023-11-19T09:34:10;1.83;;;1.27;;
4933;SDS011;2482;49.154;8.254;2023-11-19T09:36:38;3.60;;;1.20;;
4933;SDS011;2482;49.154;8.254;2023-11-19T09:39:12;1.37;;;1.10;;
4933;SDS011;2482;49.154;8.254;2023-11-19T09:41:44;1.13;;;1.00;;
4933;SDS011;2482;49.154;8.254;2023-11-19T09:44:11;1.17;;;0.93;;
4933;SDS011;2482;49.154;8.254;2023-11-19T09:46:39;1.37;;;0.90;;
4933;SDS011;2482;49.154;8.254;2023-11-19T09:49:08;2.27;;;0.90;;
4933;SDS011;2482;49.154;8.254;2023-11-19T09:51:36;1.70;;;1.00;;
4933;SDS011;2482;49.154;8.254;2023-11-19T09:54:03;2.00;;;1.50;;
4933;SDS011;2482;49.154;8.254;2023-11-19T09:56:31;1.37;;;1.23;;
4933;SDS011;2482;49.154;8.254;2023-11-19T09:59:01;3.97;;;1.00;;
4933;SDS011;2482;49.154;8.254;2023-11-19T10:01:28;2.07;;;0.90;;
4933;SDS011;2482;49.154;8.254;2023-11-19T10:03:58;2.30;;;1.00;;
4933;SDS011;2482;49.154;8.254;2023-11-19T10:06:26;1.60;;;0.87;;
4933;SDS011;2482;49.154;8.254;2023-11-19T10:08:53;5.23;;;1.30;;
4933;SDS011;2482;49.154;8.254;2023-11-19T10:11:21;4.83;;;0.97;;
4933;SDS011;2482;49.154;8.254;2023-11-19T10:13:48;3.80;;;0.80;;
4933;SDS011;2482;49.154;8.254;2023-11-19T10:16:17;1.20;;;0.90;;
4933;SDS011;2482;49.154;8.254;2023-11-19T10:18:44;1.57;;;0.97;;
4933;SDS011;2482;49.154;8.254;2023-11-19T10:21:17;2.50;;;0.90;;
4933;SDS011;2482;49.154;8.254;2023-11-19T10:26:20;2.10;;;1.20;;
4933;SDS011;2482;49.154;8.254;2023-11-19T10:28:47;2.17;;;1.50;;
4933;SDS011;2482;49.154;8.254;2023-11-19T10:31:15;1.30;;;1.20;;
4933;SDS011;2482;49.154;8.254;2023-11-19T10:33:44;11.70;;;1.53;;
4933;SDS011;2482;49.154;8.254;2023-11-19T10:36:12;3.20;;;1.40;;
4933;SDS011;2482;49.154;8.254;2023-11-19T10:38:40;4.10;;;1.10;;
4933;SDS011;2482;49.154;8.254;2023-11-19T10:41:29;1.93;;;1.00;;
4933;SDS011;2482;49.154;8.254;2023-11-19T10:43:59;1.73;;;1.00;;
4933;SDS011;2482;49.154;8.254;2023-11-19T10:46:39;2.00;;;1.07;;
4933;SDS011;2482;49.154;8.254;2023-11-19T10:49:09;2.13;;;1.77;;
4933;SDS011;2482;49.154;8.254;2023-11-19T10:51:38;1.30;;;0.80;;
4933;SDS011;2482;49.154;8.254;2023-11-19T10:54:12;5.50;;;1.50;;
4933;SDS011;2482;49.154;8.254;2023-11-19T10:56:44;2.63;;;0.90;;
4933;SDS011;2482;49.154;8.254;2023-11-19T10:59:15;1.37;;;0.97;;
4933;SDS011;2482;49.154;8.254;2023-11-19T11:01:48;2.60;;;1.13;;
4933;SDS011;2482;49.154;8.254;2023-11-19T11:04:22;2.87;;;1.10;;
4933;SDS011;2482;49.154;8.254;2023-11-19T11:06:54;3.10;;;1.40;;
4933;SDS011;2482;49.154;8.254;2023-11-19T11:09:22;2.70;;;1.10;;
4933;SDS011;2482;49.154;8.254;2023-11-19T11:11:49;1.47;;;0.70;;
4933;SDS011;2482;49.154;8.254;2023-11-19T11:14:18;2.90;;;1.17;;
4933;SDS011;2482;49.154;8.254;2023-11-19T11:16:48;1.90;;;0.90;;
4933;SDS011;2482;49.154;8.254;2023-11-19T11:19:16;1.77;;;0.90;;
4933;SDS011;2482;49.154;8.254;2023-11-19T11:21:46;2.20;;;0.87;;
4933;SDS011;2482;49.154;8.254;2023-11-19T11:30:51;2.10;;;1.43;;
4933;SDS011;2482;49.154;8.254;2023-11-19T11:36:41;3.00;;;1.10;;
4933;SDS011;2482;49.154;8.254;2023-11-19T11:39:28;2.30;;;1.10;;
4933;SDS011;2482;49.154;8.254;2023-11-19T11:48:21;3.27;;;1.10;;
4933;SDS011;2482;49.154;8.254;2023-11-19T11:50:23;2.23;;;0.93;;
4933;SDS011;2482;49.154;8.254;2023-11-19T11:55:25;2.03;;;1.00;;
4933;SDS011;2482;49.154;8.254;2023-11-19T11:58:03;2.23;;;1.00;;
4933;SDS011;2482;49.154;8.254;2023-11-19T12:00:32;3.07;;;1.20;;
4933;SDS011;2482;49.154;8.254;2023-11-19T12:03:06;1.67;;;1.47;;
4933;SDS011;2482;49.154;8.254;2023-11-19T12:05:41;3.13;;;1.03;;
4933;SDS011;2482;49.154;8.254;2023-11-19T12:08:13;4.93;;;0.90;;
4933;SDS011;2482;49.154;8.254;2023-11-19T12:10:52;5.70;;;1.20;;
4933;SDS011;2482;49.154;8.254;2023-11-19T12:13:25;2.83;;;1.00;;
4933;SDS011;2482;49.154;8.254;2023-11-19T12:16:14;4.40;;;1.33;;
4933;SDS011;2482;49.154;8.254;2023-11-19T12:18:41;3.70;;;1.10;;
4933;SDS011;2482;49.154;8.254;2023-11-19T12:21:08;1.70;;;1.00;;
4933;SDS011;2482;49.154;8.254;2023-11-19T12:23:45;2.20;;;1.20;;
4933;SDS011;2482;49.154;8.254;2023-11-19T12:26:35;7.50;;;1.40;;
4933;SDS011;2482;49.154;8.254;2023-11-19T12:29:03;3.90;;;1.20;;
4933;SDS011;2482;49.154;8.254;2023-11-19T12:31:34;4.73;;;0.90;;
4933;SDS011;2482;49.154;8.254;2023-11-19T12:34:05;4.17;;;1.20;;
4933;SDS011;2482;49.154;8.254;2023-11-19T12:36:33;1.83;;;1.00;;
4933;SDS011;2482;49.154;8.254;2023-11-19T12:39:01;2.10;;;1.00;;
4933;SDS011;2482;49.154;8.254;2023-11-19T12:41:28;1.37;;;0.97;;
4933;SDS011;2482;49.154;8.254;2023-11-19T12:44:08;3.00;;;1.10;;
4933;SDS011;2482;49.154;8.254;2023-11-19T12:46:37;1.63;;;1.37;;
4933;SDS011;2482;49.154;8.254;2023-11-19T12:49:04;1.63;;;1.10;;
4933;SDS011;2482;49.154;8.254;2023-11-19T12:51:32;5.50;;;1.10;;
4933;SDS011;2482;49.154;8.254;2023-11-19T12:54:00;7.67;;;1.40;;
4933;SDS011;2482;49.154;8.254;2023-11-19T12:56:27;2.90;;;1.20;;
4933;SDS011;2482;49.154;8.254;2023-11-19T12:58:56;4.40;;;1.23;;
4933;SDS011;2482;49.154;8.254;2023-11-19T13:01:23;5.77;;;1.10;;
4933;SDS011;2482;49.154;8.254;2023-11-19T13:03:50;5.23;;;1.40;;
4933;SDS011;2482;49.154;8.254;2023-11-19T13:06:18;4.60;;;1.43;;
4933;SDS011;2482;49.154;8.254;2023-11-19T13:08:48;3.00;;;1.90;;
4933;SDS011;2482;49.154;8.254;2023-11-19T13:11:34;2.20;;;1.20;;
4933;SDS011;2482;49.154;8.254;2023-11-19T13:14:03;3.80;;;1.17;;
4933;SDS011;2482;49.154;8.254;2023-11-19T13:16:32;6.43;;;1.70;;
4933;SDS011;2482;49.154;8.254;2023-11-19T13:18:59;1.60;;;1.00;;
4933;SDS011;2482;49.154;8.254;2023-11-19T13:21:27;3.90;;;1.50;;
4933;SDS011;2482;49.154;8.254;2023-11-19T13:23:56;1.63;;;1.13;;
4933;SDS011;2482;49.154;8.254;2023-11-19T13:26:23;4.03;;;1.40;;
4933;SDS011;2482;49.154;8.254;2023-11-19T13:28:50;2.60;;;1.30;;
4933;SDS011;2482;49.154;8.254;2023-11-19T13:31:17;8.13;;;2.80;;
4933;SDS011;2482;49.154;8.254;2023-11-19T13:33:45;2.73;;;1.30;;
4933;SDS011;2482;49.154;8.254;2023-11-19T13:36:12;1.90;;;0.90;;
4933;SDS011;2482;49.154;8.254;2023-11-19T13:38:42;3.80;;;1.03;;
4933;SDS011;2482;49.154;8.254;2023-11-19T13:41:11;3.87;;;1.67;;
4933;SDS011;2482;49.154;8.254;2023-11-19T13:43:40;4.10;;;1.30;;
4933;SDS011;2482;49.154;8.254;2023-11-19T13:46:07;12.40;;;1.57;;
4933;SDS011;2482;49.154;8.254;2023-11-19T13:48:39;2.03;;;1.27;;
4933;SDS011;2482;49.154;8.254;2023-11-19T13:51:06;2.20;;;1.00;;
4933;SDS011;2482;49.154;8.254;2023-11-19T13:53:34;4.67;;;1.10;;
4933;SDS011;2482;49.154;8.254;2023-11-19T13:56:04;2.70;;;1.10;;
4933;SDS011;2482;49.154;8.254;2023-11-19T13:58:32;1.93;;;1.10;;
4933;SDS011;2482;49.154;8.254;2023-11-19T14:01:00;2.60;;;0.90;;
4933;SDS011;2482;49.154;8.254;2023-11-19T14:03:28;2.70;;;1.33;;
4933;SDS011;2482;49.154;8.254;2023-11-19T14:05:55;2.63;;;1.30;;
4933;SDS011;2482;49.154;8.254;2023-11-19T14:08:24;2.40;;;1.00;;
4933;SDS011;2482;49.154;8.254;2023-11-19T14:10:51;6.73;;;1.50;;
4933;SDS011;2482;49.154;8.254;2023-11-19T14:13:21;12.50;;;1.67;;
4933;SDS011;2482;49.154;8.254;2023-11-19T14:15:51;1.67;;;1.00;;
4933;SDS011;2482;49.154;8.254;2023-11-19T14:18:19;2.33;;;0.90;;
4933;SDS011;2482;49.154;8.254;2023-11-19T14:20:46;4.53;;;1.00;;
4933;SDS011;2482;49.154;8.254;2023-11-19T14:23:13;4.30;;;1.10;;
4933;SDS011;2482;49.154;8.254;2023-11-19T14:25:40;2.43;;;1.10;;
4933;SDS011;2482;49.154;8.254;2023-11-19T14:28:07;3.20;;;1.23;;
4933;SDS011;2482;49.154;8.254;2023-11-19T14:30:34;1.17;;;0.80;;
4933;SDS011;2482;49.154;8.254;2023-11-19T14:33:01;4.20;;;1.00;;
4933;SDS011;2482;49.154;8.254;2023-11-19T14:35:29;5.30;;;1.00;;
4933;SDS011;2482;49.154;8.254;2023-11-19T14:37:57;1.53;;;0.90;;
4933;SDS011;2482;49.154;8.254;2023-11-19T14:40:24;2.83;;;1.30;;
4933;SDS011;2482;49.154;8.254;2023-11-19T14:42:54;1.67;;;0.90;;
4933;SDS011;2482;49.154;8.254;2023-11-19T14:45:22;2.00;;;0.90;;
4933;SDS011;2482;49.154;8.254;2023-11-19T14:47:49;2.00;;;1.20;;
4933;SDS011;2482;49.154;8.254;2023-11-19T14:50:16;2.60;;;0.80;;
4933;SDS011;2482;49.154;8.254;2023-11-19T14:52:43;3.40;;;1.10;;
4933;SDS011;2482;49.154;8.254;2023-11-19T14:55:11;4.77;;;1.30;;
4933;SDS011;2482;49.154;8.254;2023-11-19T14:57:38;2.17;;;1.00;;
4933;SDS011;2482;49.154;8.254;2023-11-19T15:00:06;3.87;;;1.37;;
4933;SDS011;2482;49.154;8.254;2023-11-19T15:02:40;9.87;;;1.60;;
4933;SDS011;2482;49.154;8.254;2023-11-19T15:05:08;3.70;;;1.40;;
4933;SDS011;2482;49.154;8.254;2023-11-19T15:07:39;3.83;;;1.00;;
4933;SDS011;2482;49.154;8.254;2023-11-19T15:10:06;4.27;;;1.10;;
4933;SDS011;2482;49.154;8.254;2023-11-19T15:12:37;7.23;;;1.40;;
4933;SDS011;2482;49.154;8.254;2023-11-19T15:15:07;1.80;;;1.13;;
4933;SDS011;2482;49.154;8.254;2023-11-19T15:17:40;3.17;;;1.13;;
4933;SDS011;2482;49.154;8.254;2023-11-19T15:20:07;2.70;;;1.20;;
4933;SDS011;2482;49.154;8.254;2023-11-19T15:22:35;3.10;;;1.10;;
4933;SDS011;2482;49.154;8.254;2023-11-19T15:25:02;2.40;;;1.27;;
4933;SDS011;2482;49.154;8.254;2023-11-19T15:27:29;3.17;;;0.90;;
4933;SDS011;2482;49.154;8.254;2023-11-19T15:29:56;3.50;;;1.20;;
4933;SDS011;2482;49.154;8.254;2023-11-19T15:32:24;4.03;;;1.60;;
4933;SDS011;2482;49.154;8.254;2023-11-19T15:34:51;2.60;;;1.00;;
4933;SDS011;2482;49.154;8.254;2023-11-19T15:37:18;4.20;;;1.30;;
4933;SDS011;2482;49.154;8.254;2023-11-19T15:39:46;3.73;;;1.20;;
4933;SDS011;2482;49.154;8.254;2023-11-19T15:42:14;7.03;;;1.40;;
4933;SDS011;2482;49.154;8.254;2023-11-19T15:44:41;2.23;;;1.63;;
4933;SDS011;2482;49.154;8.254;2023-11-19T15:47:09;5.47;;;2.03;;